createdAt,value
2023-07-25T00:00:40.634Z,62.64
2023-07-25T00:03:07.324Z,62.36
2023-07-25T00:05:33.944Z,61.81
2023-07-25T00:08:00.523Z,62.22
2023-07-25T00:10:27.110Z,64.33
2023-07-25T00:12:56.185Z,66.29
2023-07-25T00:15:23.140Z,65.50
2023-07-25T00:17:50.998Z,64.90
2023-07-25T00:20:17.864Z,61.74
2023-07-25T00:22:44.540Z,60.92
2023-07-25T00:25:11.499Z,60.52
2023-07-25T00:27:38.156Z,60.28
2023-07-25T00:30:05.573Z,59.37
2023-07-25T00:32:34.873Z,59.25
2023-07-25T00:35:02.998Z,59.93
2023-07-25T00:37:30.648Z,59.61
2023-07-25T00:39:57.770Z,59.53
2023-07-25T00:42:24.885Z,59.23
2023-07-25T00:44:51.974Z,58.53
2023-07-25T00:47:23.694Z,58.63
2023-07-25T00:49:52.010Z,59.37
2023-07-25T00:52:19.012Z,59.37
2023-07-25T00:54:48.723Z,59.63
2023-07-25T00:57:19.719Z,59.75
2023-07-25T00:59:47.676Z,60.20
2023-07-25T01:02:15.425Z,60.55
2023-07-25T01:04:43.094Z,61.13
2023-07-25T01:07:13.501Z,62.71
2023-07-25T01:09:50.089Z,65.11
2023-07-25T01:12:16.697Z,68.06
2023-07-25T01:14:44.561Z,71.19
2023-07-25T01:17:16.599Z,73.69
2023-07-25T01:19:45.401Z,75.54
2023-07-25T01:22:12.691Z,77.81
2023-07-25T01:24:47.126Z,80.27
2023-07-25T01:27:16.999Z,83.74
2023-07-25T01:29:44.238Z,82.51
2023-07-25T01:32:11.334Z,84.27
2023-07-25T01:34:38.224Z,84.37
2023-07-25T01:37:07.170Z,84.29
2023-07-25T01:39:33.857Z,87.35
2023-07-25T01:42:00.438Z,87.84
2023-07-25T01:44:26.991Z,90.98
2023-07-25T01:46:56.205Z,89.78
2023-07-25T01:49:22.818Z,86.17
2023-07-25T01:51:49.452Z,93.80
2023-07-25T01:54:17.972Z,92.35
2023-07-25T01:56:44.977Z,93.41
2023-07-25T01:59:13.394Z,96.26
2023-07-25T02:01:40.178Z,97.08
2023-07-25T02:04:07.126Z,95.46
2023-07-25T02:06:33.760Z,93.64
2023-07-25T02:09:00.341Z,93.02
2023-07-25T02:11:26.972Z,91.10
2023-07-25T02:13:53.540Z,95.05
2023-07-25T02:16:20.961Z,93.75
2023-07-25T02:18:47.603Z,94.65
2023-07-25T02:21:14.289Z,95.81
2023-07-25T02:23:40.901Z,96.38
2023-07-25T02:26:07.529Z,96.54
2023-07-25T02:28:34.092Z,96.64
2023-07-25T02:31:00.684Z,96.97
2023-07-25T02:33:27.323Z,97.88
2023-07-25T02:35:53.964Z,100.00
2023-07-25T02:38:20.585Z,100.00
2023-07-25T02:40:47.508Z,100.00
2023-07-25T02:43:14.179Z,100.00
2023-07-25T02:45:40.831Z,100.00
2023-07-25T02:48:07.429Z,100.00
2023-07-25T02:50:34.043Z,100.00
2023-07-25T02:53:00.661Z,100.00
2023-07-25T02:55:27.292Z,100.00
2023-07-25T02:57:53.918Z,100.00
2023-07-25T03:00:20.566Z,100.00
2023-07-25T03:02:47.219Z,100.00
2023-07-25T03:05:13.928Z,100.00
2023-07-25T03:07:40.502Z,100.00
2023-07-25T03:10:07.845Z,100.00
2023-07-25T03:12:34.551Z,100.00
2023-07-25T03:15:01.561Z,100.00
2023-07-25T03:17:28.752Z,100.00
2023-07-25T03:19:55.402Z,100.00
2023-07-25T03:22:22.206Z,100.00
2023-07-25T03:24:49.701Z,100.00
2023-07-25T03:27:17.474Z,100.00
2023-07-25T03:29:44.195Z,100.00
2023-07-25T03:32:10.972Z,100.00
2023-07-25T03:34:37.631Z,100.00
2023-07-25T03:37:04.527Z,100.00
2023-07-25T03:39:31.304Z,100.00
2023-07-25T03:41:57.978Z,100.00
2023-07-25T03:44:24.594Z,100.00
2023-07-25T03:46:51.311Z,100.00
2023-07-25T03:49:18.053Z,100.00
2023-07-25T03:51:44.727Z,100.00
2023-07-25T03:54:11.521Z,100.00
2023-07-25T03:56:38.151Z,100.00
2023-07-25T03:59:04.857Z,100.00
2023-07-25T04:01:32.082Z,100.00
2023-07-25T04:03:59.054Z,100.00
2023-07-25T04:06:26.123Z,100.00
2023-07-25T04:08:52.808Z,100.00
2023-07-25T04:11:19.421Z,100.00
2023-07-25T04:13:46.118Z,100.00
2023-07-25T04:16:12.807Z,100.00
2023-07-25T04:18:39.529Z,100.00
2023-07-25T04:21:06.156Z,100.00
2023-07-25T04:23:32.765Z,100.00
2023-07-25T04:25:59.397Z,100.00
2023-07-25T04:28:25.999Z,100.00
2023-07-25T04:30:52.654Z,100.00
2023-07-25T04:33:19.264Z,100.00
2023-07-25T04:35:46.559Z,100.00
2023-07-25T04:38:14.787Z,100.00
2023-07-25T04:40:42.850Z,100.00
2023-07-25T04:43:09.463Z,100.00
2023-07-25T04:45:36.736Z,100.00
2023-07-25T04:48:03.636Z,100.00
2023-07-25T04:50:30.420Z,100.00
2023-07-25T04:52:57.033Z,100.00
2023-07-25T04:55:23.680Z,100.00
2023-07-25T04:57:52.429Z,100.00
2023-07-25T05:00:19.101Z,100.00
2023-07-25T05:02:48.027Z,100.00
2023-07-25T05:05:14.684Z,100.00
2023-07-25T05:07:41.290Z,100.00
2023-07-25T05:10:08.435Z,100.00
2023-07-25T05:12:35.041Z,100.00
2023-07-25T05:15:01.601Z,100.00
2023-07-25T05:17:28.208Z,100.00
2023-07-25T05:19:54.837Z,100.00
2023-07-25T05:22:21.509Z,100.00
2023-07-25T05:24:48.140Z,100.00
2023-07-25T05:27:14.898Z,100.00
2023-07-25T05:29:41.533Z,100.00
2023-07-25T05:32:08.525Z,100.00
2023-07-25T05:34:35.159Z,100.00
2023-07-25T05:37:02.203Z,100.00
2023-07-25T05:39:28.818Z,100.00
2023-07-25T05:41:55.421Z,100.00
2023-07-25T05:44:22.032Z,100.00
2023-07-25T05:46:48.691Z,100.00
2023-07-25T05:49:15.330Z,100.00
2023-07-25T05:51:41.924Z,98.87
2023-07-25T05:54:08.900Z,97.76
2023-07-25T05:56:35.525Z,98.03
2023-07-25T05:59:02.198Z,94.47
2023-07-25T06:01:28.879Z,95.00
2023-07-25T06:03:55.641Z,96.16
2023-07-25T06:06:22.375Z,92.07
2023-07-25T06:08:48.968Z,88.74
2023-07-25T06:11:16.849Z,89.25
2023-07-25T06:13:43.620Z,89.02
2023-07-25T06:16:10.249Z,86.94
2023-07-25T06:18:36.827Z,86.56
2023-07-25T06:21:03.479Z,85.68
2023-07-25T06:23:30.067Z,83.52
2023-07-25T06:25:56.682Z,82.05
2023-07-25T06:28:23.236Z,79.05
2023-07-25T06:30:49.998Z,79.66
2023-07-25T06:33:16.842Z,81.94
2023-07-25T06:35:43.493Z,82.83
2023-07-25T06:38:10.132Z,82.13
2023-07-25T06:40:36.797Z,80.66
2023-07-25T06:43:03.501Z,80.61
2023-07-25T06:45:30.182Z,80.39
2023-07-25T06:47:56.851Z,76.89
2023-07-25T06:50:23.524Z,75.66
2023-07-25T06:52:50.186Z,77.21
2023-07-25T06:55:20.214Z,77.18
2023-07-25T06:57:47.278Z,76.98
2023-07-25T07:00:14.837Z,73.65
2023-07-25T07:02:42.724Z,72.97
2023-07-25T07:05:28.955Z,71.05
2023-07-25T07:07:56.005Z,70.36
2023-07-25T07:10:22.710Z,68.07
2023-07-25T07:12:49.604Z,76.61
2023-07-25T07:15:16.422Z,69.89
2023-07-25T07:17:43.331Z,68.29
2023-07-25T07:20:10.524Z,71.28
2023-07-25T07:22:37.411Z,71.56
2023-07-25T07:25:04.498Z,69.56
2023-07-25T07:27:31.085Z,67.62
2023-07-25T07:29:57.710Z,67.69
2023-07-25T07:32:24.382Z,66.64
2023-07-25T07:34:50.999Z,72.33
2023-07-25T07:37:17.609Z,69.19
2023-07-25T07:39:44.278Z,63.93
2023-07-25T07:42:10.871Z,63.60
2023-07-25T07:44:37.482Z,63.67
2023-07-25T07:47:05.465Z,60.38
2023-07-25T07:49:35.076Z,63.15
2023-07-25T07:52:13.256Z,65.05
2023-07-25T07:54:44.042Z,60.94
2023-07-25T07:57:10.680Z,62.12
2023-07-25T07:59:37.326Z,62.33
2023-07-25T08:02:04.126Z,61.52
2023-07-25T08:04:31.690Z,62.20
2023-07-25T08:06:58.433Z,61.67
2023-07-25T08:09:28.468Z,60.71
2023-07-25T08:11:55.113Z,62.72
2023-07-25T08:14:22.016Z,63.07
2023-07-25T08:16:49.066Z,63.43
2023-07-25T08:19:16.595Z,63.77
2023-07-25T08:21:43.373Z,63.57
2023-07-25T08:24:10.142Z,63.97
2023-07-25T08:26:36.847Z,65.32
2023-07-25T08:29:03.736Z,66.25
2023-07-25T08:31:30.849Z,66.50
2023-07-25T08:33:57.975Z,67.24
2023-07-25T08:36:24.606Z,67.80
2023-07-25T08:38:51.225Z,69.53
2023-07-25T08:41:20.262Z,71.72
2023-07-25T08:43:48.532Z,73.42
2023-07-25T08:46:19.919Z,75.82
2023-07-25T08:48:49.116Z,76.19
2023-07-25T08:51:22.815Z,77.73
2023-07-25T08:54:06.800Z,78.89
2023-07-25T08:56:35.962Z,79.35
2023-07-25T08:59:04.467Z,78.11
2023-07-25T09:01:32.174Z,80.53
2023-07-25T09:04:05.015Z,79.89
2023-07-25T09:06:33.082Z,80.83
2023-07-25T09:09:00.068Z,84.10
2023-07-25T09:11:27.375Z,86.15
2023-07-25T09:13:54.355Z,88.92
2023-07-25T09:16:21.323Z,91.61
2023-07-25T09:18:47.970Z,93.63
2023-07-25T09:21:16.222Z,94.96
2023-07-25T09:23:55.601Z,96.89
2023-07-25T09:26:24.436Z,98.14
2023-07-25T09:28:58.940Z,99.21
2023-07-25T09:31:28.215Z,100.00
2023-07-25T09:33:56.576Z,98.99
2023-07-25T09:36:23.966Z,99.05
2023-07-25T09:38:55.156Z,99.97
2023-07-25T09:41:23.876Z,100.00
2023-07-25T09:43:51.887Z,100.00
2023-07-25T09:46:19.326Z,100.00
2023-07-25T09:48:47.985Z,98.62
2023-07-25T09:51:15.597Z,98.39
2023-07-25T09:53:50.666Z,100.00
2023-07-25T09:56:17.493Z,100.00
2023-07-25T09:58:55.001Z,100.00
2023-07-25T10:01:31.785Z,100.00
2023-07-25T10:03:58.927Z,100.00
2023-07-25T10:06:26.477Z,99.87
2023-07-25T10:08:54.378Z,100.00
2023-07-25T10:11:22.756Z,100.00
2023-07-25T10:13:51.606Z,100.00
2023-07-25T10:16:20.927Z,100.00
2023-07-25T10:18:54.542Z,97.98
2023-07-25T10:21:28.023Z,94.71
2023-07-25T10:24:04.123Z,91.96
2023-07-25T10:26:30.883Z,94.49
2023-07-25T10:29:00.613Z,94.92
2023-07-25T10:31:34.933Z,96.03
2023-07-25T10:34:03.525Z,92.82
2023-07-25T10:36:30.191Z,95.79
2023-07-25T10:39:07.149Z,96.97
2023-07-25T10:41:34.274Z,90.61
2023-07-25T10:44:03.338Z,92.74
2023-07-25T10:46:33.136Z,84.54
2023-07-25T10:49:05.339Z,91.64
2023-07-25T10:51:56.217Z,91.82
2023-07-25T10:54:25.295Z,90.24
2023-07-25T10:57:10.428Z,91.74
2023-07-25T11:00:09.709Z,90.60
2023-07-25T11:02:40.389Z,83.57
2023-07-25T11:05:13.190Z,92.73
2023-07-25T11:08:01.426Z,87.67
2023-07-25T11:10:30.112Z,82.11
2023-07-25T11:12:59.045Z,83.06
2023-07-25T11:15:40.685Z,83.54
2023-07-25T11:18:12.932Z,84.26
2023-07-25T11:20:41.993Z,84.49
2023-07-25T11:23:08.710Z,85.92
2023-07-25T11:25:35.764Z,87.92
2023-07-25T11:28:02.370Z,84.57
2023-07-25T11:30:29.002Z,82.98
2023-07-25T11:32:55.694Z,82.89
2023-07-25T11:35:25.473Z,81.90
2023-07-25T11:38:02.505Z,82.80
2023-07-25T11:40:30.231Z,81.94
2023-07-25T11:42:57.934Z,81.67
2023-07-25T11:45:24.776Z,82.37
2023-07-25T11:47:52.825Z,79.71
2023-07-25T11:50:26.787Z,80.21
2023-07-25T11:52:56.027Z,80.14
2023-07-25T11:55:22.862Z,79.14
2023-07-25T11:57:51.881Z,78.58
2023-07-25T12:00:18.586Z,78.46
2023-07-25T12:02:45.523Z,78.59
2023-07-25T12:05:31.705Z,76.02
2023-07-25T12:08:01.964Z,75.20
2023-07-25T12:10:33.775Z,74.17
2023-07-25T12:13:04.760Z,73.86
2023-07-25T12:15:56.178Z,72.37
2023-07-25T12:18:26.797Z,74.72
2023-07-25T12:20:59.484Z,75.67
2023-07-25T12:23:31.381Z,75.70
2023-07-25T12:26:00.652Z,75.21
2023-07-25T12:28:42.962Z,76.83
2023-07-25T12:31:09.762Z,75.87
2023-07-25T12:33:36.907Z,78.14
2023-07-25T12:36:04.872Z,78.76
2023-07-25T12:38:31.537Z,79.41
2023-07-25T12:40:58.180Z,78.89
2023-07-25T12:43:24.897Z,84.57
2023-07-25T12:45:51.672Z,81.26
2023-07-25T12:48:18.478Z,79.66
2023-07-25T12:50:45.154Z,84.17
2023-07-25T12:53:11.824Z,86.09
2023-07-25T12:55:38.988Z,87.14
2023-07-25T12:58:05.786Z,85.21
2023-07-25T13:00:32.746Z,86.68
2023-07-25T13:02:59.844Z,86.25
2023-07-25T13:05:29.723Z,87.07
2023-07-25T13:07:57.933Z,87.73
2023-07-25T13:10:25.845Z,84.64
2023-07-25T13:12:52.843Z,82.96
2023-07-25T13:15:19.578Z,82.42
2023-07-25T13:17:46.360Z,81.72
2023-07-25T13:20:13.055Z,79.73
2023-07-25T13:22:39.637Z,80.51
2023-07-25T13:25:06.482Z,78.50
2023-07-25T13:27:33.086Z,75.83
2023-07-25T13:30:00.089Z,76.85
2023-07-25T13:32:26.980Z,77.54
2023-07-25T13:34:53.663Z,77.31
2023-07-25T13:37:20.276Z,75.55
2023-07-25T13:39:46.910Z,72.80
2023-07-25T13:42:13.573Z,72.78
2023-07-25T13:44:40.261Z,75.34
2023-07-25T13:47:07.056Z,71.19
2023-07-25T13:49:33.660Z,70.52
2023-07-25T13:52:02.790Z,70.46
2023-07-25T13:54:31.460Z,71.28
2023-07-25T13:56:58.373Z,71.96
2023-07-25T13:59:24.968Z,72.33
2023-07-25T14:01:51.705Z,71.25
2023-07-25T14:04:18.455Z,71.07
2023-07-25T14:06:45.585Z,68.85
2023-07-25T14:09:12.259Z,69.69
2023-07-25T14:11:38.953Z,68.65
2023-07-25T14:14:05.675Z,70.24
2023-07-25T14:16:32.528Z,70.99
2023-07-25T14:18:59.166Z,71.49
2023-07-25T14:21:25.757Z,72.08
2023-07-25T14:23:52.363Z,72.40
2023-07-25T14:26:19.111Z,71.89
2023-07-25T14:28:46.482Z,72.65
2023-07-25T14:31:13.160Z,70.82
2023-07-25T14:33:40.135Z,70.02
2023-07-25T14:36:06.744Z,66.44
2023-07-25T14:38:33.372Z,66.88
2023-07-25T14:41:00.085Z,67.62
2023-07-25T14:43:26.743Z,69.95
2023-07-25T14:45:53.394Z,70.22
2023-07-25T14:48:20.130Z,68.58
2023-07-25T14:50:46.986Z,65.45
2023-07-25T14:53:13.700Z,64.38
2023-07-25T14:55:40.389Z,59.70
2023-07-25T14:58:06.999Z,59.34
2023-07-25T15:00:33.630Z,52.46
2023-07-25T15:03:00.390Z,48.15
2023-07-25T15:05:27.028Z,44.78
2023-07-25T15:07:54.183Z,41.82
2023-07-25T15:10:20.789Z,41.75
2023-07-25T15:12:47.458Z,40.74
2023-07-25T15:15:14.381Z,40.42
2023-07-25T15:17:41.088Z,39.77
2023-07-25T15:20:11.560Z,41.04
2023-07-25T15:22:38.942Z,40.44
2023-07-25T15:25:06.118Z,39.42
2023-07-25T15:27:32.769Z,40.88
2023-07-25T15:29:59.373Z,42.26
2023-07-25T15:32:26.055Z,44.96
2023-07-25T15:34:52.737Z,44.77
2023-07-25T15:37:19.426Z,46.28
2023-07-25T15:39:46.041Z,47.18
2023-07-25T15:42:13.002Z,49.06
2023-07-25T15:44:39.805Z,48.20
2023-07-25T15:47:06.911Z,50.04
2023-07-25T15:49:33.522Z,50.60
2023-07-25T15:52:00.511Z,52.30
2023-07-25T15:54:28.029Z,52.53
2023-07-25T15:56:55.029Z,52.07
2023-07-25T15:59:23.326Z,53.94
2023-07-25T16:01:52.221Z,55.64
2023-07-25T16:04:20.268Z,56.59
2023-07-25T16:06:47.948Z,56.70
2023-07-25T16:09:15.184Z,58.09
2023-07-25T16:11:42.029Z,58.52
2023-07-25T16:14:08.808Z,58.80
2023-07-25T16:16:35.622Z,57.76
2023-07-25T16:19:02.280Z,54.94
2023-07-25T16:21:32.187Z,52.29
2023-07-25T16:23:59.173Z,51.58
2023-07-25T16:26:25.790Z,52.13
2023-07-25T16:28:52.915Z,50.91
2023-07-25T16:31:31.738Z,50.19
2023-07-25T16:33:59.505Z,50.89
2023-07-25T16:36:26.161Z,51.26
2023-07-25T16:38:54.059Z,51.07
2023-07-25T16:41:20.783Z,52.62
2023-07-25T16:43:47.433Z,53.94
2023-07-25T16:46:14.213Z,53.77
2023-07-25T16:48:40.831Z,53.49
2023-07-25T16:51:08.388Z,53.79
2023-07-25T16:53:35.046Z,54.00
2023-07-25T16:56:01.762Z,54.65
2023-07-25T16:58:28.331Z,54.29
2023-07-25T17:00:57.015Z,55.09
2023-07-25T17:03:24.618Z,55.98
2023-07-25T17:05:51.452Z,56.45
2023-07-25T17:08:20.480Z,57.33
2023-07-25T17:10:47.650Z,58.60
2023-07-25T17:13:15.819Z,59.96
2023-07-25T17:17:21.135Z,61.77
2023-07-25T17:19:47.775Z,62.75
2023-07-25T17:22:14.494Z,63.04
2023-07-25T17:24:41.160Z,63.46
2023-07-25T17:27:07.925Z,64.08
2023-07-25T17:29:34.528Z,64.44
2023-07-25T17:32:02.063Z,63.92
2023-07-25T17:34:29.944Z,65.28
2023-07-25T17:36:56.690Z,65.13
2023-07-25T17:39:23.337Z,66.02
2023-07-25T17:41:49.921Z,67.01
2023-07-25T17:44:16.654Z,67.05
2023-07-25T17:46:43.276Z,67.67
2023-07-25T17:49:09.944Z,68.72
2023-07-25T17:51:36.582Z,67.83
2023-07-25T17:54:03.305Z,68.46
2023-07-25T17:56:29.958Z,68.48
2023-07-25T17:58:56.643Z,68.57
2023-07-25T18:01:23.358Z,69.73
2023-07-25T18:03:50.116Z,70.02
2023-07-25T18:06:16.961Z,69.80
2023-07-25T18:08:43.860Z,70.43
2023-07-25T18:11:10.536Z,70.17
2023-07-25T18:13:37.224Z,70.28
2023-07-25T18:16:03.895Z,70.13
2023-07-25T18:18:30.576Z,70.18
2023-07-25T18:20:57.184Z,70.83
2023-07-25T18:23:25.416Z,70.85
2023-07-25T18:25:52.360Z,70.46
2023-07-25T18:28:18.943Z,70.97
2023-07-25T18:30:45.593Z,72.12
2023-07-25T18:33:14.283Z,71.87
2023-07-25T18:35:41.944Z,73.36
2023-07-25T18:38:08.657Z,76.01
2023-07-25T18:40:37.229Z,73.92
2023-07-25T18:43:07.079Z,74.37
2023-07-25T18:45:33.977Z,75.09
2023-07-25T18:48:00.614Z,75.40
2023-07-25T18:50:28.735Z,75.97
2023-07-25T18:52:55.450Z,77.54
2023-07-25T18:55:22.085Z,77.56
2023-07-25T18:57:48.667Z,79.66
2023-07-25T19:00:15.606Z,79.06
2023-07-25T19:02:42.297Z,80.00
2023-07-25T19:05:09.495Z,79.08
2023-07-25T19:07:36.090Z,80.95
2023-07-25T19:10:02.761Z,78.69
2023-07-25T19:12:29.341Z,78.73
2023-07-25T19:14:55.971Z,77.79
2023-07-25T19:17:22.631Z,77.64
2023-07-25T19:19:49.299Z,78.43
2023-07-25T19:22:16.006Z,77.90
2023-07-25T19:24:42.703Z,78.27
2023-07-25T19:27:09.367Z,78.68
2023-07-25T19:29:36.471Z,78.33
2023-07-25T19:32:03.449Z,79.10
2023-07-25T19:34:30.162Z,78.98
2023-07-25T19:36:56.819Z,79.62
2023-07-25T19:39:23.384Z,79.16
2023-07-25T19:41:52.924Z,79.64
2023-07-25T19:44:20.732Z,79.43
2023-07-25T19:46:47.354Z,80.03
2023-07-25T19:49:13.970Z,79.81
2023-07-25T19:51:40.608Z,81.47
2023-07-25T19:54:07.287Z,82.64
2023-07-25T19:56:34.932Z,82.19
2023-07-25T19:59:02.166Z,83.63
2023-07-25T20:01:30.272Z,83.43
2023-07-25T20:03:56.950Z,83.41
2023-07-25T20:06:24.317Z,83.15
2023-07-25T20:08:51.307Z,83.49
2023-07-25T20:11:17.967Z,82.77
2023-07-25T20:13:44.623Z,82.24
2023-07-25T20:16:11.295Z,83.23
2023-07-25T20:18:37.951Z,82.52
2023-07-25T20:21:12.231Z,84.09
2023-07-25T20:23:39.242Z,83.07
2023-07-25T20:26:05.951Z,83.29
2023-07-25T20:28:32.711Z,82.98
2023-07-25T20:31:00.949Z,83.22
2023-07-25T20:33:27.602Z,83.95
2023-07-25T20:35:54.240Z,83.98
2023-07-25T20:38:20.820Z,85.37
2023-07-25T20:40:47.467Z,85.01
2023-07-25T20:43:14.080Z,84.67
2023-07-25T20:45:40.719Z,85.89
2023-07-25T20:48:07.632Z,86.86
2023-07-25T20:50:34.339Z,87.35
2023-07-25T20:53:02.699Z,86.02
2023-07-25T20:55:30.369Z,87.46
2023-07-25T20:57:57.054Z,88.36
2023-07-25T21:00:23.680Z,89.75
2023-07-25T21:02:50.667Z,89.29
2023-07-25T21:05:17.942Z,88.47
2023-07-25T21:07:44.627Z,88.59
2023-07-25T21:10:11.306Z,88.88
2023-07-25T21:12:39.058Z,89.14
2023-07-25T21:15:08.427Z,89.15
2023-07-25T21:17:35.364Z,87.99
2023-07-25T21:20:03.762Z,90.32
2023-07-25T21:22:30.439Z,90.79
2023-07-25T21:24:57.350Z,91.43
2023-07-25T21:27:24.028Z,91.69
2023-07-25T21:29:50.677Z,92.61
2023-07-25T21:32:17.305Z,93.30
2023-07-25T21:34:44.131Z,93.19
2023-07-25T21:37:10.929Z,90.71
2023-07-25T21:39:37.542Z,92.64
2023-07-25T21:42:04.287Z,92.32
2023-07-25T21:44:30.980Z,92.62
2023-07-25T21:46:57.723Z,93.29
2023-07-25T21:49:24.477Z,93.44
2023-07-25T21:51:51.130Z,92.92
2023-07-25T21:54:17.944Z,93.05
2023-07-25T21:56:44.570Z,93.50
2023-07-25T21:59:11.204Z,91.56
2023-07-25T22:01:40.031Z,93.08
2023-07-25T22:04:09.060Z,93.54
2023-07-25T22:06:36.403Z,93.71
2023-07-25T22:09:03.140Z,96.01
2023-07-25T22:11:29.838Z,95.59
2023-07-25T22:13:56.505Z,95.63
2023-07-25T22:16:23.909Z,97.32
2023-07-25T22:18:50.639Z,96.15
2023-07-25T22:21:19.956Z,95.52
2023-07-25T22:23:46.688Z,95.24
2023-07-25T22:26:13.348Z,96.43
2023-07-25T22:28:39.982Z,96.40
2023-07-25T22:31:06.668Z,96.27
2023-07-25T22:33:33.369Z,95.93
2023-07-25T22:36:00.036Z,95.35
2023-07-25T22:38:26.652Z,95.61
2023-07-25T22:40:53.238Z,95.00
2023-07-25T22:43:19.841Z,93.30
2023-07-25T22:45:46.454Z,93.78
2023-07-25T22:48:13.095Z,93.42
2023-07-25T22:50:39.681Z,95.20
2023-07-25T22:53:06.350Z,96.45
2023-07-25T22:55:33.883Z,95.00
2023-07-25T22:58:00.661Z,96.05
2023-07-25T23:00:27.311Z,96.17
2023-07-25T23:02:54.456Z,97.05
2023-07-25T23:05:21.231Z,96.26
2023-07-25T23:07:47.845Z,96.13
2023-07-25T23:10:14.748Z,96.66
2023-07-25T23:12:41.630Z,96.01
2023-07-25T23:15:11.312Z,97.63
2023-07-25T23:17:38.031Z,97.33
2023-07-25T23:20:05.048Z,96.98
2023-07-25T23:22:31.880Z,97.47
2023-07-25T23:24:59.073Z,99.34
2023-07-25T23:27:26.050Z,97.56
2023-07-25T23:29:52.681Z,97.52
2023-07-25T23:32:19.256Z,97.42
2023-07-25T23:34:48.183Z,96.38
2023-07-25T23:37:15.259Z,96.77
2023-07-25T23:39:42.228Z,95.04
2023-07-25T23:42:08.845Z,95.42
2023-07-25T23:44:35.847Z,94.05
2023-07-25T23:47:03.876Z,95.85
2023-07-25T23:49:31.018Z,96.29
2023-07-25T23:51:57.725Z,95.32
2023-07-25T23:54:24.336Z,90.10
2023-07-25T23:56:51.788Z,89.42
2023-07-25T23:59:18.481Z,89.46
